Time;durP1;ratioP1;P1;durP2;ratioP2;P2;SDS_P1;SDS_P2;PMS_P1;PMS_P2;Temp;Humidity;BMP_temperature;BMP_pressure;BME280_temperature;BME280_humidity;BME280_pressure;Samples;Min_cycle;Max_cycle;Signal;HPM_P1;HPM_P2
2022/04/20 00:02:03;;;;;;;1.43;1.00;;;11.20;73.00;;;;;;5013057;28;20483;-76
2022/04/20 00:04:32;;;;;;;1.47;1.10;;;11.20;73.80;;;;;;5037399;28;20496;-76
2022/04/20 00:06:58;;;;;;;1.50;1.10;;;11.10;74.50;;;;;;5030335;28;20487;-76
2022/04/20 00:09:25;;;;;;;1.50;1.10;;;11.00;74.90;;;;;;5027371;28;20487;-75
2022/04/20 00:11:52;;;;;;;1.47;1.10;;;11.00;75.40;;;;;;5029249;28;20558;-76
2022/04/20 00:14:19;;;;;;;1.50;1.17;;;10.90;75.40;;;;;;5040045;28;20482;-76
2022/04/20 00:16:46;;;;;;;1.43;1.10;;;10.80;76.00;;;;;;5022096;28;20456;-76
2022/04/20 00:19:12;;;;;;;1.47;1.10;;;10.80;76.40;;;;;;5029469;28;20498;-76
2022/04/20 00:21:40;;;;;;;1.50;1.10;;;10.70;76.30;;;;;;5029818;28;20463;-76
2022/04/20 00:24:07;;;;;;;1.50;1.10;;;10.70;76.00;;;;;;5030595;28;20467;-76
2022/04/20 00:26:34;;;;;;;1.47;1.13;;;10.60;75.40;;;;;;5039330;28;20471;-76
2022/04/20 00:29:01;;;;;;;1.43;1.00;;;10.60;76.40;;;;;;5031626;28;20470;-76
2022/04/20 00:31:28;;;;;;;1.50;1.13;;;10.50;76.60;;;;;;5029543;28;20832;-76
2022/04/20 00:33:54;;;;;;;1.50;1.10;;;10.50;76.50;;;;;;5031111;28;20475;-77
2022/04/20 00:36:21;;;;;;;1.50;1.17;;;10.50;75.30;;;;;;5030759;28;20463;-76
2022/04/20 00:38:49;;;;;;;1.50;1.20;;;10.40;76.30;;;;;;5030598;28;21073;-75
2022/04/20 00:41:16;;;;;;;1.50;1.10;;;10.40;76.70;;;;;;5028039;28;20474;-76
2022/04/20 00:43:44;;;;;;;1.50;1.10;;;10.30;76.20;;;;;;5039373;28;20465;-76
2022/04/20 00:46:11;;;;;;;1.50;1.10;;;10.30;76.70;;;;;;5045384;28;20766;-76
2022/04/20 00:48:40;;;;;;;1.50;1.10;;;10.30;77.60;;;;;;5028632;28;20477;-76
2022/04/20 00:51:07;;;;;;;1.50;1.10;;;10.20;77.50;;;;;;5014478;28;21482;-76
2022/04/20 00:53:33;;;;;;;1.50;1.10;;;10.20;77.40;;;;;;5024109;28;20463;-76
2022/04/20 00:56:01;;;;;;;1.50;1.20;;;10.10;77.70;;;;;;5028296;28;20486;-76
2022/04/20 00:58:28;;;;;;;1.50;1.10;;;10.10;77.70;;;;;;5030825;28;20486;-76
2022/04/20 01:00:55;;;;;;;1.47;1.10;;;10.10;77.90;;;;;;5029718;28;20582;-76
2022/04/20 01:03:22;;;;;;;1.47;1.10;;;10.00;78.70;;;;;;5020154;28;20810;-76
2022/04/20 01:05:49;;;;;;;1.50;1.20;;;10.00;78.00;;;;;;5022177;28;20486;-75
2022/04/20 01:08:15;;;;;;;1.47;1.10;;;9.90;77.80;;;;;;5031293;28;20458;-75
2022/04/20 01:10:42;;;;;;;1.50;1.20;;;9.90;77.90;;;;;;5032004;28;20474;-75
2022/04/20 01:13:11;;;;;;;1.50;1.20;;;9.90;77.80;;;;;;5030010;28;20472;-76
2022/04/20 01:15:38;;;;;;;1.50;1.17;;;9.90;78.20;;;;;;5048140;28;20879;-76
2022/04/20 01:18:12;;;;;;;1.47;1.10;;;9.90;77.90;;;;;;5017898;28;20487;-76
2022/04/20 01:20:41;;;;;;;1.47;1.20;;;9.90;78.10;;;;;;5028242;28;20857;-76
2022/04/20 01:23:07;;;;;;;1.50;1.10;;;9.90;77.50;;;;;;5029927;28;20459;-76
2022/04/20 01:25:34;;;;;;;1.50;1.30;;;9.90;77.60;;;;;;5048892;28;20482;-76
2022/04/20 01:28:02;;;;;;;1.50;1.10;;;9.90;77.80;;;;;;5030813;28;20494;-76
2022/04/20 01:30:29;;;;;;;1.47;1.20;;;9.90;77.80;;;;;;5028218;28;20464;-73
2022/04/20 01:32:56;;;;;;;1.40;1.10;;;9.90;78.00;;;;;;5026527;28;20471;-76
2022/04/20 01:35:23;;;;;;;1.50;1.20;;;9.80;78.10;;;;;;5047474;28;20873;-76
2022/04/20 01:37:51;;;;;;;1.47;1.20;;;9.80;78.30;;;;;;5031786;28;20467;-75
2022/04/20 01:40:18;;;;;;;1.47;1.17;;;9.80;77.80;;;;;;5027647;28;20499;-76
2022/04/20 01:42:45;;;;;;;1.47;1.17;;;9.80;78.00;;;;;;5027803;28;20489;-76
2022/04/20 01:45:12;;;;;;;1.50;1.30;;;9.80;78.20;;;;;;5041580;28;20489;-76
2022/04/20 01:47:39;;;;;;;1.43;1.13;;;9.80;78.60;;;;;;5035122;28;20462;-76
2022/04/20 01:50:06;;;;;;;1.50;1.10;;;9.70;78.60;;;;;;5029468;28;20959;-76
2022/04/20 01:52:33;;;;;;;1.50;1.10;;;9.70;78.20;;;;;;5029731;28;20467;-76
2022/04/20 01:55:01;;;;;;;1.47;1.10;;;9.70;78.30;;;;;;5033225;28;20551;-76
2022/04/20 01:57:28;;;;;;;1.50;1.20;;;9.70;78.50;;;;;;5015081;28;20479;-76
2022/04/20 01:59:55;;;;;;;1.50;1.20;;;9.60;78.40;;;;;;5036227;28;20494;-75
2022/04/20 02:02:38;;;;;;;1.50;1.13;;;9.60;78.40;;;;;;5028621;28;20462;-76
2022/04/20 02:05:06;;;;;;;1.50;1.10;;;9.60;78.50;;;;;;5034168;28;20482;-76
2022/04/20 02:07:33;;;;;;;1.50;1.10;;;9.50;79.10;;;;;;5043418;28;21005;-76
2022/04/20 02:10:02;;;;;;;1.43;1.20;;;9.50;78.80;;;;;;5042188;28;20475;-76
2022/04/20 02:12:29;;;;;;;1.50;1.20;;;9.50;79.30;;;;;;5029697;28;20539;-76
2022/04/20 02:14:55;;;;;;;1.43;1.10;;;9.40;79.00;;;;;;5032364;28;20522;-76
2022/04/20 02:17:22;;;;;;;1.47;1.10;;;9.40;79.50;;;;;;5031688;28;20463;-76
2022/04/20 02:19:49;;;;;;;1.50;1.20;;;9.40;80.10;;;;;;5030957;28;21006;-75
2022/04/20 02:22:16;;;;;;;1.50;1.20;;;9.30;80.70;;;;;;5030422;28;21075;-76
2022/04/20 02:24:43;;;;;;;1.40;1.10;;;9.30;80.10;;;;;;5043699;28;20490;-75
2022/04/20 02:27:13;;;;;;;1.50;1.10;;;9.30;80.20;;;;;;5039587;28;20470;-76
2022/04/20 02:29:40;;;;;;;1.47;1.20;;;9.30;80.10;;;;;;5030444;28;20817;-76
2022/04/20 02:32:09;;;;;;;1.40;1.10;;;9.20;80.60;;;;;;5019870;28;20971;-76
2022/04/20 02:34:35;;;;;;;1.50;1.20;;;9.20;81.00;;;;;;5031261;28;20913;-75
2022/04/20 02:37:11;;;;;;;1.43;1.20;;;9.20;80.50;;;;;;5051786;22;21042;-78
2022/04/20 02:39:38;;;;;;;1.47;1.20;;;9.20;80.60;;;;;;5027651;28;20487;-78
2022/04/20 02:42:06;;;;;;;1.40;1.10;;;9.10;80.40;;;;;;5038879;28;20545;-78
2022/04/20 02:44:35;;;;;;;1.40;1.10;;;9.10;79.90;;;;;;5031144;28;20467;-78
2022/04/20 02:47:02;;;;;;;1.43;1.20;;;9.10;80.20;;;;;;5033389;28;20667;-78
2022/04/20 02:49:28;;;;;;;1.47;1.10;;;9.10;80.40;;;;;;5044675;28;20448;-78
2022/04/20 02:51:55;;;;;;;1.50;1.30;;;9.10;80.50;;;;;;5031670;28;20566;-78
2022/04/20 02:54:22;;;;;;;1.47;1.10;;;9.10;80.30;;;;;;5037587;28;20463;-78
2022/04/20 02:56:49;;;;;;;1.40;1.20;;;9.00;81.10;;;;;;5029093;28;21025;-78
2022/04/20 02:59:15;;;;;;;1.50;1.20;;;9.00;80.90;;;;;;5048902;28;20652;-78
2022/04/20 03:01:43;;;;;;;1.50;1.30;;;9.00;80.50;;;;;;5034905;28;20463;-78
2022/04/20 03:04:10;;;;;;;1.47;1.20;;;8.90;80.50;;;;;;5041763;28;20467;-78
2022/04/20 03:06:37;;;;;;;1.40;1.20;;;8.90;80.60;;;;;;5042159;28;20491;-78
2022/04/20 03:09:04;;;;;;;1.50;1.20;;;8.80;80.50;;;;;;5027972;28;20463;-78
2022/04/20 03:11:31;;;;;;;1.50;1.20;;;8.80;81.40;;;;;;5019853;28;20501;-78
2022/04/20 03:13:57;;;;;;;1.50;1.20;;;8.80;81.30;;;;;;5038499;28;20482;-77
2022/04/20 03:16:24;;;;;;;1.50;1.30;;;8.80;82.20;;;;;;5023784;28;20525;-78
2022/04/20 03:18:53;;;;;;;1.40;1.20;;;8.70;82.10;;;;;;5042921;28;20490;-77
2022/04/20 03:21:19;;;;;;;1.50;1.13;;;8.70;82.30;;;;;;5022072;28;20478;-78
2022/04/20 03:23:46;;;;;;;1.50;1.20;;;8.70;81.60;;;;;;5046814;28;21081;-78
2022/04/20 03:26:13;;;;;;;1.40;1.10;;;8.70;81.60;;;;;;5044288;28;20479;-78
2022/04/20 03:28:40;;;;;;;1.50;1.30;;;8.70;82.00;;;;;;5047694;28;20477;-78
2022/04/20 03:31:06;;;;;;;1.43;1.10;;;8.70;82.20;;;;;;5037851;28;20680;-78
2022/04/20 03:33:33;;;;;;;1.50;1.30;;;8.60;81.60;;;;;;5030145;28;20956;-78
2022/04/20 03:36:01;;;;;;;1.50;1.20;;;8.60;81.90;;;;;;5039475;28;21009;-78
2022/04/20 03:38:28;;;;;;;1.50;1.20;;;8.60;82.10;;;;;;5039904;28;20462;-78
2022/04/20 03:40:55;;;;;;;1.40;1.10;;;8.60;81.80;;;;;;5037514;28;20771;-78
2022/04/20 03:43:22;;;;;;;1.50;1.23;;;8.50;82.50;;;;;;5041463;28;20958;-78
2022/04/20 03:45:50;;;;;;;1.50;1.30;;;8.50;82.20;;;;;;5036279;28;20458;-77
2022/04/20 03:48:17;;;;;;;1.40;1.20;;;8.50;82.70;;;;;;5043236;28;20851;-78
2022/04/20 03:50:44;;;;;;;1.40;1.20;;;8.50;82.60;;;;;;5039244;28;20464;-77
2022/04/20 03:53:12;;;;;;;1.43;1.20;;;8.50;82.80;;;;;;5032650;28;20469;-78
2022/04/20 03:55:38;;;;;;;1.50;1.20;;;8.40;82.70;;;;;;5030028;28;20907;-78
2022/04/20 03:58:05;;;;;;;1.50;1.10;;;8.40;82.90;;;;;;5034748;28;20989;-78
2022/04/20 04:00:32;;;;;;;1.47;1.20;;;8.40;83.00;;;;;;5046435;28;20502;-78
2022/04/20 04:02:59;;;;;;;1.50;1.10;;;8.40;83.40;;;;;;5033445;28;20469;-78
2022/04/20 04:05:26;;;;;;;1.50;1.20;;;8.30;83.60;;;;;;5044407;28;20474;-77
2022/04/20 04:07:53;;;;;;;1.50;1.20;;;8.30;84.10;;;;;;5031695;28;20862;-78
2022/04/20 04:10:21;;;;;;;1.50;1.30;;;8.30;83.70;;;;;;5032690;28;20462;-78
2022/04/20 04:12:48;;;;;;;1.40;1.10;;;8.30;83.60;;;;;;5032210;28;21022;-77
2022/04/20 04:15:14;;;;;;;1.50;1.30;;;8.20;83.70;;;;;;5029142;28;20463;-78
2022/04/20 04:17:41;;;;;;;1.47;1.20;;;8.20;83.90;;;;;;5024655;28;20895;-78
2022/04/20 04:20:10;;;;;;;1.50;1.20;;;8.20;84.20;;;;;;5030727;28;20483;-78
2022/04/20 04:22:37;;;;;;;1.50;1.20;;;8.30;83.90;;;;;;5028118;28;20479;-78
2022/04/20 04:25:04;;;;;;;1.43;1.20;;;8.30;83.50;;;;;;5043956;28;20501;-78
2022/04/20 04:27:32;;;;;;;1.47;1.20;;;8.20;84.30;;;;;;5033702;28;20483;-78
2022/04/20 04:30:01;;;;;;;1.50;1.20;;;8.30;84.60;;;;;;5029673;28;20455;-78
2022/04/20 04:32:28;;;;;;;1.50;1.40;;;8.20;83.90;;;;;;5026630;28;20975;-78
2022/04/20 04:34:54;;;;;;;1.50;1.20;;;8.20;83.90;;;;;;5029652;28;20516;-78
2022/04/20 04:37:21;;;;;;;1.50;1.30;;;8.20;84.30;;;;;;5027680;28;20483;-78
2022/04/20 04:39:48;;;;;;;1.40;1.10;;;8.20;84.60;;;;;;5028290;28;20497;-77
2022/04/20 04:42:15;;;;;;;1.47;1.20;;;8.20;84.20;;;;;;5031979;28;20485;-78
2022/04/20 04:44:43;;;;;;;1.43;1.20;;;8.20;84.80;;;;;;5032451;28;20970;-78
2022/04/20 04:50:01;;;;;;;1.43;1.20;;;8.20;84.70;;;;;;5026160;28;20456;-80
2022/04/20 04:52:29;;;;;;;1.47;1.20;;;8.10;85.20;;;;;;5032923;28;20496;-76
2022/04/20 04:54:56;;;;;;;1.40;1.13;;;8.20;85.40;;;;;;5032972;28;20481;-76
2022/04/20 04:57:23;;;;;;;1.43;1.10;;;8.20;84.90;;;;;;5033649;28;20991;-76
2022/04/20 04:59:51;;;;;;;1.50;1.30;;;8.20;85.80;;;;;;5032682;28;20501;-77
2022/04/20 05:02:18;;;;;;;1.40;1.20;;;8.20;85.50;;;;;;5029471;28;20879;-76
2022/04/20 05:04:45;;;;;;;1.50;1.20;;;8.20;85.10;;;;;;5044804;28;20480;-77
2022/04/20 05:07:12;;;;;;;1.40;1.13;;;8.20;85.10;;;;;;5032904;28;20540;-76
2022/04/20 05:09:38;;;;;;;1.47;1.20;;;8.20;85.20;;;;;;5023067;28;20463;-76
2022/04/20 05:12:06;;;;;;;1.40;1.10;;;8.20;85.30;;;;;;5022618;28;20473;-76
2022/04/20 05:14:36;;;;;;;1.50;1.30;;;8.20;85.20;;;;;;5030315;28;20466;-77
2022/04/20 05:17:04;;;;;;;1.43;1.20;;;8.30;85.40;;;;;;5027805;28;20482;-77
2022/04/20 05:19:31;;;;;;;1.40;1.20;;;8.30;84.80;;;;;;5035082;28;20462;-77
2022/04/20 05:21:58;;;;;;;1.40;1.20;;;8.30;84.60;;;;;;5024881;28;20905;-77
2022/04/20 05:24:25;;;;;;;1.50;1.20;;;8.30;85.10;;;;;;5036590;28;20460;-76
2022/04/20 05:26:52;;;;;;;1.50;1.30;;;8.40;84.80;;;;;;5034105;28;20483;-76
2022/04/20 05:29:19;;;;;;;1.47;1.20;;;8.40;84.40;;;;;;5025479;28;20466;-77
2022/04/20 05:31:46;;;;;;;1.43;1.20;;;8.50;84.90;;;;;;5029865;28;20473;-76
2022/04/20 05:34:14;;;;;;;1.50;1.17;;;8.60;84.00;;;;;;5031514;28;20847;-76
2022/04/20 05:42:10;;;;;;;1.50;1.20;;;9.10;83.20;;;;;;5030031;28;20446;-77
2022/04/20 05:44:37;;;;;;;1.43;1.10;;;9.30;84.40;;;;;;5033968;28;20513;-77
2022/04/20 05:47:04;;;;;;;1.50;1.20;;;9.60;82.40;;;;;;5041703;28;20482;-77
2022/04/20 05:49:32;;;;;;;1.40;1.20;;;9.80;83.20;;;;;;5049365;28;20458;-77
2022/04/20 05:51:59;;;;;;;1.47;1.10;;;10.10;82.20;;;;;;5028731;28;20867;-77
2022/04/20 05:54:26;;;;;;;1.50;1.10;;;10.40;80.80;;;;;;5044557;28;20460;-77
2022/04/20 05:56:53;;;;;;;1.40;1.10;;;10.70;80.60;;;;;;5021004;28;20509;-77
2022/04/20 05:59:20;;;;;;;1.50;1.10;;;10.90;78.80;;;;;;5033857;28;20463;-77
2022/04/20 06:01:46;;;;;;;1.47;1.10;;;11.10;79.10;;;;;;5016549;28;20481;-77
2022/04/20 06:04:13;;;;;;;1.50;1.00;;;11.30;78.30;;;;;;5034854;28;20459;-77
2022/04/20 06:06:42;;;;;;;1.50;1.10;;;11.50;78.80;;;;;;5038550;28;20573;-77
2022/04/20 06:09:08;;;;;;;1.50;1.10;;;11.70;76.60;;;;;;5031305;28;20464;-77
2022/04/20 06:11:35;;;;;;;1.50;1.10;;;11.90;75.90;;;;;;5027872;28;20470;-78
2022/04/20 06:14:02;;;;;;;1.47;1.00;;;12.10;75.60;;;;;;5030573;28;20485;-78
2022/04/20 06:16:29;;;;;;;1.47;1.10;;;12.20;74.90;;;;;;5029604;28;20483;-78
2022/04/20 06:18:57;;;;;;;1.50;1.17;;;12.40;73.80;;;;;;5023977;28;20475;-77
2022/04/20 06:21:24;;;;;;;1.47;1.00;;;12.50;73.70;;;;;;5025088;28;20522;-77
2022/04/20 06:23:52;;;;;;;1.47;1.00;;;12.60;73.20;;;;;;5030781;28;20467;-78
2022/04/20 06:26:18;;;;;;;1.50;1.00;;;12.70;73.30;;;;;;5023986;28;20864;-78
2022/04/20 06:28:45;;;;;;;1.47;1.07;;;12.80;72.80;;;;;;5034388;28;20464;-78
2022/04/20 06:31:12;;;;;;;1.50;1.00;;;13.00;72.80;;;;;;5032484;28;20475;-78
2022/04/20 06:33:39;;;;;;;1.40;1.00;;;13.10;71.80;;;;;;5034247;28;20464;-78
2022/04/20 06:36:06;;;;;;;1.50;1.07;;;13.20;71.90;;;;;;5046435;28;20494;-77
2022/04/20 06:38:32;;;;;;;1.40;1.00;;;13.30;71.50;;;;;;5032328;28;20475;-78
2022/04/20 06:41:00;;;;;;;1.40;0.90;;;13.40;70.70;;;;;;5028751;28;20491;-79
2022/04/20 06:43:27;;;;;;;1.50;1.00;;;13.30;70.90;;;;;;5031897;28;20657;-78
2022/04/20 06:45:54;;;;;;;1.43;1.00;;;13.40;70.50;;;;;;5029312;28;20466;-79
2022/04/20 06:48:21;;;;;;;1.50;1.00;;;13.30;71.30;;;;;;5029869;28;20463;-79
2022/04/20 06:50:48;;;;;;;1.40;0.90;;;13.30;70.60;;;;;;5033008;28;20458;-78
2022/04/20 06:58:45;;;;;;;1.40;1.00;;;13.80;70.50;;;;;;5034284;28;21037;-79
2022/04/20 07:01:14;;;;;;;1.43;1.00;;;14.00;69.50;;;;;;5046945;28;20504;-80
2022/04/20 07:03:41;;;;;;;1.47;0.97;;;14.00;68.10;;;;;;5034589;28;20467;-79
2022/04/20 07:06:08;;;;;;;1.40;0.97;;;13.90;68.40;;;;;;5033572;28;20904;-80
2022/04/20 07:08:35;;;;;;;1.50;1.10;;;14.00;68.80;;;;;;5039457;28;20467;-81
2022/04/20 07:11:04;;;;;;;1.47;1.00;;;14.10;68.30;;;;;;5034157;28;20459;-80
2022/04/20 07:13:31;;;;;;;1.47;1.00;;;14.30;68.20;;;;;;5035018;28;20471;-80
2022/04/20 07:15:58;;;;;;;1.50;1.20;;;14.40;66.80;;;;;;5024323;28;20748;-80
2022/04/20 07:18:24;;;;;;;1.40;0.90;;;14.60;66.70;;;;;;5048009;28;20470;-80
2022/04/20 07:20:52;;;;;;;1.47;1.00;;;14.60;65.80;;;;;;5042773;28;21042;-78
2022/04/20 07:23:19;;;;;;;1.43;0.90;;;14.60;65.80;;;;;;5028112;28;20463;-77
2022/04/20 07:25:46;;;;;;;1.40;0.93;;;14.70;65.70;;;;;;5029823;28;20988;-79
2022/04/20 07:28:14;;;;;;;1.40;1.00;;;14.90;64.30;;;;;;5046758;28;20474;-81
2022/04/20 07:30:40;;;;;;;1.47;1.00;;;15.00;64.90;;;;;;5044369;28;20458;-79
2022/04/20 07:33:07;;;;;;;1.40;0.90;;;15.10;64.10;;;;;;5038126;28;20888;-80
2022/04/20 07:35:34;;;;;;;1.43;0.90;;;15.10;63.90;;;;;;5038778;28;20461;-79
2022/04/20 07:38:01;;;;;;;1.40;1.00;;;15.10;63.50;;;;;;5035768;28;20493;-80
2022/04/20 07:40:28;;;;;;;1.43;1.00;;;15.20;63.80;;;;;;5034168;28;20522;-80
2022/04/20 07:42:55;;;;;;;1.40;0.90;;;15.20;63.30;;;;;;5029899;28;20900;-80
2022/04/20 07:45:26;;;;;;;1.43;0.93;;;15.40;63.10;;;;;;5047505;28;20462;-79
2022/04/20 07:47:54;;;;;;;1.40;0.90;;;15.70;63.80;;;;;;5035712;28;20479;-79
2022/04/20 07:50:23;;;;;;;1.43;0.97;;;16.00;62.70;;;;;;5028101;28;20835;-79
2022/04/20 07:52:52;;;;;;;1.43;0.90;;;16.00;61.30;;;;;;5030342;28;20485;-80
2022/04/20 07:55:21;;;;;;;1.47;1.00;;;16.00;61.10;;;;;;5032959;28;20470;-80
2022/04/20 07:57:50;;;;;;;1.43;0.90;;;16.10;60.00;;;;;;5048842;28;20474;-80
2022/04/20 08:00:18;;;;;;;1.43;1.00;;;16.10;60.60;;;;;;5049563;28;20474;-79
2022/04/20 08:02:48;;;;;;;1.40;0.90;;;16.20;60.50;;;;;;5045977;28;20535;-80
2022/04/20 08:05:16;;;;;;;1.40;0.90;;;16.20;60.20;;;;;;5037079;28;20469;-80
2022/04/20 08:07:44;;;;;;;1.40;0.97;;;16.40;59.90;;;;;;5031850;28;20490;-80
2022/04/20 08:10:13;;;;;;;1.43;0.90;;;16.50;59.20;;;;;;5040610;28;20458;-79
2022/04/20 08:12:41;;;;;;;1.40;0.90;;;16.50;58.90;;;;;;5029318;28;20758;-79
2022/04/20 08:15:10;;;;;;;1.43;1.00;;;16.40;58.40;;;;;;5034394;28;20633;-80
2022/04/20 08:17:38;;;;;;;1.47;0.90;;;16.50;58.60;;;;;;5037241;28;20475;-80
2022/04/20 08:20:09;;;;;;;1.43;0.90;;;16.60;58.80;;;;;;5037594;28;20462;-82
2022/04/20 08:22:41;;;;;;;1.43;0.90;;;16.60;58.80;;;;;;5035833;28;20501;-80
2022/04/20 08:25:09;;;;;;;1.47;0.90;;;16.60;58.20;;;;;;5049394;28;20966;-79
2022/04/20 08:27:35;;;;;;;1.40;0.90;;;16.60;58.20;;;;;;5042249;28;20482;-79
2022/04/20 08:30:03;;;;;;;1.40;0.90;;;16.70;58.80;;;;;;5033159;28;20466;-81
2022/04/20 08:32:30;;;;;;;1.50;1.00;;;16.90;58.00;;;;;;5037790;28;20447;-81
2022/04/20 08:34:57;;;;;;;1.40;1.00;;;17.00;58.00;;;;;;5052667;28;20466;-82
2022/04/20 08:37:25;;;;;;;1.40;0.90;;;17.10;58.40;;;;;;5059087;22;20494;-77
2022/04/20 08:39:52;;;;;;;1.50;1.00;;;17.30;58.30;;;;;;5014314;28;20551;-77
2022/04/20 08:42:22;;;;;;;1.43;0.90;;;17.40;58.30;;;;;;5010617;28;20609;-77
2022/04/20 08:44:50;;;;;;;1.43;0.90;;;17.40;57.90;;;;;;5009400;28;20582;-77
2022/04/20 08:47:20;;;;;;;1.43;0.90;;;17.60;57.80;;;;;;5008408;28;20924;-77
2022/04/20 08:49:48;;;;;;;1.43;0.90;;;17.80;57.40;;;;;;5006623;28;20468;-77
2022/04/20 08:54:59;;;;;;;1.63;1.13;;;17.90;56.80;;;;;;5000410;28;20470;-77
2022/04/20 08:57:26;;;;;;;1.47;0.90;;;18.00;56.80;;;;;;5008168;28;20543;-77
2022/04/20 08:59:54;;;;;;;1.43;0.90;;;18.00;56.30;;;;;;5008052;28;20487;-78
2022/04/20 09:02:24;;;;;;;1.50;0.97;;;18.10;55.30;;;;;;5000654;28;20484;-77
2022/04/20 09:04:51;;;;;;;1.40;0.90;;;18.30;56.00;;;;;;4998819;28;20747;-77
2022/04/20 09:07:19;;;;;;;1.40;0.90;;;18.30;55.30;;;;;;5001626;28;20456;-77
2022/04/20 09:09:46;;;;;;;1.43;0.90;;;18.30;55.80;;;;;;5010547;28;20975;-76
2022/04/20 09:12:18;;;;;;;1.40;0.90;;;18.50;55.40;;;;;;4996872;28;20497;-77
2022/04/20 09:14:48;;;;;;;1.40;0.90;;;18.50;54.40;;;;;;5000610;28;20472;-77
2022/04/20 09:17:17;;;;;;;1.47;0.90;;;18.70;54.80;;;;;;5001889;28;20551;-77
2022/04/20 09:19:44;;;;;;;1.40;0.90;;;18.70;54.60;;;;;;5019647;28;20788;-79
2022/04/20 09:22:19;;;;;;;1.47;0.90;;;18.80;54.60;;;;;;5005864;28;20524;-79
2022/04/20 09:25:03;;;;;;;1.43;0.90;;;18.80;54.10;;;;;;5012002;28;20750;-80
2022/04/20 09:27:32;;;;;;;1.50;0.90;;;19.00;54.50;;;;;;5013799;28;20487;-77
2022/04/20 09:30:00;;;;;;;1.43;0.90;;;19.10;55.80;;;;;;5015628;28;20511;-80
2022/04/20 09:32:35;;;;;;;1.47;0.90;;;19.30;55.60;;;;;;5013583;28;20452;-78
2022/04/20 09:35:05;;;;;;;1.50;1.07;;;19.00;53.40;;;;;;5008701;28;20573;-81
2022/04/20 09:37:32;;;;;;;1.43;1.00;;;18.90;54.80;;;;;;5016053;28;20590;-77
2022/04/20 09:40:00;;;;;;;1.43;0.90;;;19.00;53.90;;;;;;5010397;28;20457;-77
2022/04/20 09:42:27;;;;;;;1.50;1.10;;;19.10;54.00;;;;;;5014100;28;20537;-78
2022/04/20 09:44:57;;;;;;;1.43;0.90;;;19.20;54.10;;;;;;5014032;28;20472;-80
2022/04/20 09:50:10;;;;;;;1.43;0.87;;;19.50;54.60;;;;;;5009899;28;20452;-78
2022/04/20 09:52:39;;;;;;;1.40;0.90;;;20.00;55.40;;;;;;5000596;28;20488;-76
2022/04/20 09:55:08;;;;;;;1.73;1.60;;;20.40;55.00;;;;;;5009720;28;20464;-77
2022/04/20 09:57:37;;;;;;;1.40;0.90;;;20.70;55.00;;;;;;4991358;28;20477;-78
2022/04/20 10:00:09;;;;;;;1.43;0.90;;;20.80;52.30;;;;;;5013394;28;20555;-81
2022/04/20 10:02:45;;;;;;;1.50;1.00;;;20.90;53.10;;;;;;5004647;28;20545;-79
2022/04/20 10:05:12;;;;;;;1.43;0.87;;;20.90;52.20;;;;;;5001500;28;20842;-76
2022/04/20 10:07:39;;;;;;;1.40;0.90;;;20.80;53.10;;;;;;5004406;28;21186;-75
2022/04/20 10:10:07;;;;;;;1.47;0.90;;;21.10;54.50;;;;;;5005072;28;20463;-75
2022/04/20 10:12:37;;;;;;;1.43;0.90;;;21.20;53.10;;;;;;5000335;28;20461;-75
2022/04/20 10:17:54;;;;;;;1.47;0.90;;;21.20;53.70;;;;;;5011367;28;20475;-75
2022/04/20 10:20:23;;;;;;;1.47;0.90;;;21.30;51.80;;;;;;5002546;28;20467;-75
2022/04/20 10:22:51;;;;;;;1.50;0.90;;;21.40;52.00;;;;;;4993240;28;20895;-75
2022/04/20 10:25:18;;;;;;;1.47;0.90;;;21.60;53.60;;;;;;5010429;28;20464;-75
2022/04/20 10:28:03;;;;;;;1.47;0.90;;;21.90;51.40;;;;;;5007917;28;20625;-75
2022/04/20 10:30:41;;;;;;;1.43;0.90;;;21.60;51.00;;;;;;5006696;28;20551;-76
2022/04/20 10:33:10;;;;;;;1.60;1.27;;;21.70;51.70;;;;;;5006034;28;20992;-76
2022/04/20 10:36:00;;;;;;;3.30;1.53;;;21.80;52.50;;;;;;5010616;28;20985;-75
2022/04/20 10:38:30;;;;;;;1.47;0.90;;;21.90;52.90;;;;;;5005588;28;20484;-77
2022/04/20 10:41:02;;;;;;;1.50;0.90;;;22.30;52.90;;;;;;5007027;28;20464;-76
2022/04/20 10:43:30;;;;;;;1.43;0.80;;;22.60;52.10;;;;;;4997916;28;20559;-75
2022/04/20 10:46:16;;;;;;;1.43;0.80;;;22.60;50.00;;;;;;5002177;28;20464;-76
2022/04/20 10:48:48;;;;;;;1.43;0.87;;;22.80;50.90;;;;;;5010555;28;20871;-76
2022/04/20 10:51:16;;;;;;;1.47;0.80;;;22.80;50.20;;;;;;4994248;28;20461;-76
2022/04/20 10:53:45;;;;;;;1.43;0.90;;;22.60;50.50;;;;;;4997515;28;20475;-75
2022/04/20 10:56:12;;;;;;;1.50;0.90;;;22.80;51.20;;;;;;5006459;28;20564;-76
2022/04/20 10:59:09;;;;;;;1.40;0.80;;;23.00;50.60;;;;;;5006530;28;20499;-76
2022/04/20 11:04:46;;;;;;;1.43;0.90;;;23.10;49.50;;;;;;5105309;27;132321;-76
2022/04/20 11:07:16;;;;;;;1.50;0.90;;;22.20;49.50;;;;;;5133534;27;20466;-77
2022/04/20 11:10:05;;;;;;;1.50;0.90;;;22.00;50.90;;;;;;5124001;28;20476;-76
2022/04/20 11:18:39;;;;;;;1.50;0.90;;;21.70;50.60;;;;;;5099716;28;20548;-76
2022/04/20 11:21:28;;;;;;;1.43;0.90;;;21.60;50.50;;;;;;5098736;28;20490;-77
2022/04/20 11:23:58;;;;;;;1.47;0.80;;;21.40;51.00;;;;;;5102192;28;20491;-77
2022/04/20 11:26:27;;;;;;;1.40;0.80;;;21.40;50.80;;;;;;5085792;28;20540;-77
2022/04/20 11:28:55;;;;;;;1.47;0.90;;;21.60;51.50;;;;;;5070119;28;20477;-77
2022/04/20 11:31:22;;;;;;;1.47;0.90;;;22.10;51.40;;;;;;5064171;28;20457;-77
2022/04/20 11:33:50;;;;;;;1.40;0.80;;;22.40;51.00;;;;;;5062686;28;20468;-77
2022/04/20 11:36:17;;;;;;;1.40;0.83;;;22.50;51.70;;;;;;5062335;28;20465;-77
2022/04/20 11:38:48;;;;;;;1.40;0.90;;;22.60;50.70;;;;;;5062806;28;20481;-76
2022/04/20 11:41:17;;;;;;;1.40;0.80;;;22.60;49.40;;;;;;5059829;28;20457;-76
2022/04/20 11:43:44;;;;;;;1.47;1.10;;;22.80;51.10;;;;;;5069817;28;20920;-76
2022/04/20 11:46:11;;;;;;;1.40;0.80;;;22.70;49.60;;;;;;5063703;28;20465;-76
2022/04/20 11:48:48;;;;;;;1.50;1.10;;;22.90;50.90;;;;;;5062295;28;20997;-76
2022/04/20 11:51:20;;;;;;;1.50;1.00;;;23.10;51.40;;;;;;5067969;28;20466;-77
2022/04/20 11:53:48;;;;;;;1.40;0.90;;;23.30;50.90;;;;;;5071540;28;20514;-76
2022/04/20 11:56:15;;;;;;;1.40;0.80;;;23.20;48.90;;;;;;5061797;28;20469;-76
2022/04/20 11:58:49;;;;;;;1.40;0.90;;;22.90;50.20;;;;;;5059064;28;20519;-77
2022/04/20 12:01:16;;;;;;;1.40;0.90;;;23.00;50.90;;;;;;5061696;28;20515;-77
2022/04/20 12:03:45;;;;;;;1.40;0.80;;;23.00;50.10;;;;;;5065373;28;20579;-77
2022/04/20 12:06:13;;;;;;;1.40;0.90;;;23.00;52.60;;;;;;5063016;28;20461;-76
2022/04/20 12:08:41;;;;;;;1.40;0.80;;;22.80;49.00;;;;;;5062873;28;20484;-76
2022/04/20 12:11:10;;;;;;;1.50;0.90;;;22.50;50.60;;;;;;5064660;28;20465;-76
2022/04/20 12:13:39;;;;;;;1.40;0.90;;;22.30;50.90;;;;;;5064977;28;20456;-76
2022/04/20 12:16:08;;;;;;;1.40;0.90;;;22.60;50.90;;;;;;5055893;28;20466;-77
2022/04/20 12:18:37;;;;;;;1.40;0.90;;;22.80;50.40;;;;;;5049888;28;20478;-77
2022/04/20 12:21:05;;;;;;;1.40;0.87;;;22.50;52.70;;;;;;5051290;28;20461;-76
2022/04/20 12:23:35;;;;;;;1.43;0.87;;;22.10;50.70;;;;;;5068738;28;20493;-76
2022/04/20 12:26:04;;;;;;;1.40;0.80;;;22.10;51.70;;;;;;5052439;28;20932;-77
2022/04/20 12:28:41;;;;;;;1.40;0.90;;;22.50;52.70;;;;;;5046346;28;20493;-77
2022/04/20 12:31:10;;;;;;;1.40;0.90;;;22.90;54.00;;;;;;5046098;28;20473;-77
2022/04/20 12:33:38;;;;;;;1.40;0.90;;;23.20;52.00;;;;;;5048784;28;20520;-77
2022/04/20 12:36:09;;;;;;;1.40;0.90;;;23.30;49.80;;;;;;5052468;28;20537;-77
2022/04/20 12:38:44;;;;;;;1.40;0.80;;;23.50;53.00;;;;;;5051642;28;21018;-77
2022/04/20 12:41:35;;;;;;;1.40;0.90;;;23.70;50.70;;;;;;5046501;28;20470;-76
2022/04/20 12:44:24;;;;;;;1.40;0.90;;;23.90;50.50;;;;;;5052952;28;20490;-76
2022/04/20 12:46:51;;;;;;;1.40;0.83;;;24.10;51.50;;;;;;5048308;28;20462;-76
2022/04/20 12:49:23;;;;;;;1.40;0.90;;;23.90;51.20;;;;;;5048389;28;20481;-77
2022/04/20 12:51:50;;;;;;;1.40;0.80;;;23.90;53.20;;;;;;5054371;28;20468;-76
2022/04/20 12:54:23;;;;;;;1.47;0.80;;;24.00;52.10;;;;;;5054823;28;20974;-76
2022/04/20 13:02:20;;;;;;;1.43;0.87;;;23.90;50.30;;;;;;5040623;28;20870;-77
2022/04/20 13:04:47;;;;;;;1.40;0.90;;;23.90;50.20;;;;;;5049115;28;20491;-76
2022/04/20 13:07:14;;;;;;;1.40;0.80;;;24.10;49.80;;;;;;5047771;28;20513;-76
2022/04/20 13:09:41;;;;;;;1.40;0.80;;;24.10;49.80;;;;;;5046755;28;20470;-76
2022/04/20 13:12:09;;;;;;;1.40;0.80;;;23.80;50.00;;;;;;5039724;28;20454;-76
2022/04/20 13:14:37;;;;;;;1.40;0.90;;;23.70;50.60;;;;;;5043896;28;20540;-76
2022/04/20 13:17:09;;;;;;;1.67;1.57;;;23.90;51.40;;;;;;5041129;28;20470;-76
2022/04/20 13:19:36;;;;;;;1.40;0.90;;;24.10;51.00;;;;;;5051992;28;20545;-76
2022/04/20 13:22:04;;;;;;;5.70;2.20;;;24.20;50.40;;;;;;5053799;28;20531;-76
2022/04/20 13:30:00;;;;;;;1.40;0.90;;;24.00;52.80;;;;;;5046598;28;20470;-76
2022/04/20 13:32:27;;;;;;;1.40;0.90;;;24.10;52.80;;;;;;5046965;28;20458;-75
2022/04/20 13:34:54;;;;;;;1.40;0.80;;;24.30;51.30;;;;;;5047170;28;20476;-76
2022/04/20 13:37:21;;;;;;;1.40;0.80;;;24.40;52.70;;;;;;5047258;28;20458;-77
2022/04/20 13:39:47;;;;;;;1.40;0.80;;;24.50;51.80;;;;;;5046992;28;20462;-77